Airfield :
LOGIN :

Register | Disclaimer

   EN    FR    IT 

 










Legend :    VFR   Marginal VFR   IFR   Intensive IFR   Very Intensive IFR
Visi :
Ceiling :
>= 8 km
>= 3000ft
5 to 8 km
1000 to 3000 ft
1500m to 5 km
500 to 1000 ft
800 to 1500m
200 to 500 ft
< 800m
< 200 ft
Symbols :   Thunderstorms  Fog  Heavy snow  Heavy precipitations  Wind > 20 kt
SIGMETs :     Misc.  Thunderstorms  Icing  Turbulence  Mountain Waves  Volcanic Ashes






- Airport Elevation : 157 ft
- IATA code : LIL


LFQQ - Lille Lesquin

CURRENT METAR :
  • 201500Z AUTO 18017KT 9999 FEW019 BKN074 OVC086 15/12 Q1006 TEMPO RA

EXPIRED METARs :
  • 201430Z AUTO 18017KT 9999 FEW021 SCT072 BKN082 15/12 Q1006 TEMPO RA
  • 201400Z AUTO 17015KT 130V200 9999 -RA FEW027 BKN090 BKN110 15/12 Q1006 TEMPO RA
  • 201330Z AUTO 17014KT 9999 FEW030 SCT074 BKN094 15/11 Q1006 TEMPO RA
  • 201300Z AUTO 17012KT 9999 FEW036 BKN082 15/11 Q1007 TEMPO RA
  • 201230Z AUTO 18012KT 9999 -RA FEW043 SCT066 OVC082 15/11 Q1007 TEMPO RA
  • 201200Z AUTO 18010KT 9999 -RA FEW040 SCT054 BKN078 15/11 Q1007 TEMPO RA

TAF TAF LFQQ
Valid from the 20 at 12:00 until the 21 at 18:00 UTC


201100Z 2012/2118 17013KT CAVOK
TEMPO 2012/2105 RA
PROB40
TEMPO 2020/2101 4000 BKN013 OVC080
BECMG 2107/2109 19020G30KT
BECMG 2109/2111 19025G40KT
BECMG 2113/2116 23013KT
TEMPO 2113/2118 SHRA
ATIS : +33 3 20 16 19 54



MET'MAP, your aeronautical weather chart ! - Copyright ORBIFLY December 2007 - Disclaimer

ORBIFLY MET'MAP TEAM :

Programming & Development : Alexandra Zaïnal
Concept & original design : Baudouin d'Aumeries
Assistance for programming : Marc-Olivier Méhu
Technical & hardware support : Manuel Goepfert

Contact : metmap@orbifly.com




SOURCES & CREDITS :

   NOAA